Terminal Aerodrome Forecast
Issued by NWS

Home | Current Version | Previous Version | Text Only | Print | Product List | Glossary On
Versions: 1 2 3 4 5 6 7 8 9 10 11 12 13
060
FTUS44 KLIX 291910 AAA
TAFGPT
TAF AMD
KGPT 291910Z 2919/3018 19008KT P6SM VCTS FEW030CB
     FM300100 20006KT P6SM SCT250
     FM300900 24005KT P6SM FEW090 SCT250=

USA.gov is the U.S. government's official web portal to all federal, state and local government web resources and services.